MSC Alexa — 3FPP6 — position and weather

sailwx.info

Track history (hours):
 
Tides and Currents Weather Stations Pressure Air Temp Water Temp Dewpoint Dewpoint Depression Visibility Wind Speed Wind Dir Waves Ship Positions

MSC Alexa

Last reported at 2017-Feb-25 16:29 UTC. Time now 2017-Feb-27 04:45 UTC.
Position N 01°15' E 104°05'.

Length 243 m; draft 11.8 m.

Type: Ship (hazmat cat A). MMSI: 356904000.

Date/timePositionNaut miles runAvg speedWind from/ knotsBaromVisibWave heightAir tempDewpointWater temp
2017-Feb-25 16:29N 01°15' E 104°05'1314.3
2017-Feb-25 15:34N 01°11' E 103°52'8 7.7
2017-Feb-25 14:33N 01°16' E 103°46'0 0.0
2017-Feb-25 13:33N 01°16' E 103°46'0 0.0
2017-Feb-25 12:32N 01°16' E 103°46'0 0.0
2017-Feb-25 11:32N 01°16' E 103°46'0 0.0
2017-Feb-25 10:29N 01°16' E 103°46'0 0.0
2017-Feb-25 09:28N 01°16' E 103°46'0 0.0
2017-Feb-25 08:31N 01°16' E 103°46'0 0.0
2017-Feb-25 07:33N 01°16' E 103°46'0 0.0
2017-Feb-25 06:30N 01°16' E 103°46'0 0.0
2017-Feb-25 05:33N 01°16' E 103°46'0 0.0
2017-Feb-25 04:32N 01°16' E 103°46'0 0.0
2017-Feb-25 03:32N 01°16' E 103°46'0 0.0
2017-Feb-25 02:28N 01°16' E 103°46'0 0.0
2017-Feb-25 01:33N 01°16' E 103°46'0 0.0
2017-Feb-25 00:33N 01°16' E 103°46'4 4.4
2017-Feb-24 23:33N 01°14' E 103°42'9 8.5
2017-Feb-24 22:33N 01°13' E 103°34'4 3.8
2017-Feb-24 21:30N 01°14' E 103°30'2 1.9
2017-Feb-24 20:33N 01°15' E 103°32'7 5.8
2017-Feb-24 19:23N 01°21' E 103°33'0 0.0
2017-Feb-24 18:23N 01°21' E 103°33'0 0.0
2017-Feb-24 17:32N 01°21' E 103°33'0 0.0
2017-Feb-24 16:19N 01°21' E 103°33'0 0.0
2017-Feb-24 15:10N 01°21' E 103°33'0 0.0
2017-Feb-24 14:33N 01°21' E 103°33'0 0.0
2017-Feb-24 12:26N 01°21' E 103°33'0 0.0
2017-Feb-24 10:32N 01°21' E 103°33'0 0.0
2017-Feb-24 09:31N 01°21' E 103°33'0 0.1
2017-Feb-24 08:33N 01°21' E 103°33'8 8.0
2017-Feb-24 07:33N 01°13' E 103°32'6 6.1
2017-Feb-24 06:33N 01°12' E 103°38'10 9.6
2017-Feb-24 05:33N 01°10' E 103°48'1211.6
2017-Feb-24 04:33N 01°15' E 103°58'  
2017-Feb-18 14:26N 01°14' E 104°00'1112.5
2017-Feb-18 13:33N 01°11' E 103°50'6 5.6
2017-Feb-18 12:31N 01°16' E 103°46'0 0.0
2017-Feb-18 11:25N 01°16' E 103°46'0 0.0
2017-Feb-18 10:30N 01°16' E 103°46'0 0.0
2017-Feb-18 09:33N 01°16' E 103°46'0 0.0
2017-Feb-18 08:32N 01°16' E 103°46'0 0.0
2017-Feb-18 07:32N 01°16' E 103°46'0 0.0
2017-Feb-18 06:32N 01°16' E 103°46'0 0.0
2017-Feb-18 05:31N 01°16' E 103°46'0 0.0
2017-Feb-18 04:31N 01°16' E 103°46'0 0.0
2017-Feb-18 03:33N 01°16' E 103°46'0 0.0
2017-Feb-18 02:33N 01°16' E 103°46'0 0.0
2017-Feb-18 01:32N 01°16' E 103°46'0 0.0
2017-Feb-18 00:32N 01°16' E 103°46'0 0.0
2017-Feb-17 23:32N 01°16' E 103°46'5 4.9
2017-Feb-17 22:33N 01°14' E 103°42'8 8.3
2017-Feb-17 21:33N 01°13' E 103°34'6 5.5
2017-Feb-17 20:33N 01°18' E 103°33'3 3.2
2017-Feb-17 19:29N 01°22' E 103°33'0 0.0
2017-Feb-17 18:32N 01°22' E 103°33'0 0.0
2017-Feb-17 17:25N 01°22' E 103°33'0 0.0
2017-Feb-17 16:31N 01°22' E 103°33'0 0.0
2017-Feb-17 15:33N 01°22' E 103°33'0 0.0
2017-Feb-17 14:33N 01°22' E 103°33'0 0.0
2017-Feb-17 13:32N 01°22' E 103°33'0 0.0
2017-Feb-17 12:26N 01°22' E 103°33'0 0.0
2017-Feb-17 11:32N 01°22' E 103°33'0 0.0
2017-Feb-17 10:28N 01°22' E 103°33'0 0.0
2017-Feb-17 09:31N 01°22' E 103°33'0 0.0
2017-Feb-17 08:33N 01°22' E 103°33'0 0.0
2017-Feb-17 07:33N 01°22' E 103°33'2 1.7
2017-Feb-17 06:33N 01°20' E 103°33'7 6.9
2017-Feb-17 05:33N 01°13' E 103°33'0 0.2
2017-Feb-17 04:33N 01°13' E 103°33'4 3.9
2017-Feb-17 03:33N 01°12' E 103°36'5 5.3
2017-Feb-17 02:33N 01°10' E 103°41'10 9.9
2017-Feb-17 01:33N 01°12' E 103°51'  
Track history (hours):
 
Tides and Currents Weather Stations Pressure Air Temp Water Temp Dewpoint Dewpoint Depression Visibility Wind Speed Wind Dir Waves Ship Positions

MSC Alexa

Last reported at 2017-Feb-25 16:29 UTC. Time now 2017-Feb-27 04:45 UTC.
Position N 01°15' E 104°05'.

Length 243 m; draft 11.8 m.

Type: Ship (hazmat cat A). MMSI: 356904000.

Date/timePositionNaut miles runAvg speedWind from/ knotsBaromVisibWave heightAir tempDewpointWater temp
2017-Feb-25 16:29N 01°15' E 104°05'1314.3
2017-Feb-25 15:34N 01°11' E 103°52'8 7.7
2017-Feb-25 14:33N 01°16' E 103°46'0 0.0
2017-Feb-25 13:33N 01°16' E 103°46'0 0.0
2017-Feb-25 12:32N 01°16' E 103°46'0 0.0
2017-Feb-25 11:32N 01°16' E 103°46'0 0.0
2017-Feb-25 10:29N 01°16' E 103°46'0 0.0
2017-Feb-25 09:28N 01°16' E 103°46'0 0.0
2017-Feb-25 08:31N 01°16' E 103°46'0 0.0
2017-Feb-25 07:33N 01°16' E 103°46'0 0.0
2017-Feb-25 06:30N 01°16' E 103°46'0 0.0
2017-Feb-25 05:33N 01°16' E 103°46'0 0.0
2017-Feb-25 04:32N 01°16' E 103°46'0 0.0
2017-Feb-25 03:32N 01°16' E 103°46'0 0.0
2017-Feb-25 02:28N 01°16' E 103°46'0 0.0
2017-Feb-25 01:33N 01°16' E 103°46'0 0.0
2017-Feb-25 00:33N 01°16' E 103°46'4 4.4
2017-Feb-24 23:33N 01°14' E 103°42'9 8.5
2017-Feb-24 22:33N 01°13' E 103°34'4 3.8
2017-Feb-24 21:30N 01°14' E 103°30'2 1.9
2017-Feb-24 20:33N 01°15' E 103°32'7 5.8
2017-Feb-24 19:23N 01°21' E 103°33'0 0.0
2017-Feb-24 18:23N 01°21' E 103°33'0 0.0
2017-Feb-24 17:32N 01°21' E 103°33'0 0.0
2017-Feb-24 16:19N 01°21' E 103°33'0 0.0
2017-Feb-24 15:10N 01°21' E 103°33'0 0.0
2017-Feb-24 14:33N 01°21' E 103°33'0 0.0
2017-Feb-24 12:26N 01°21' E 103°33'0 0.0
2017-Feb-24 10:32N 01°21' E 103°33'0 0.0
2017-Feb-24 09:31N 01°21' E 103°33'0 0.1
2017-Feb-24 08:33N 01°21' E 103°33'8 8.0
2017-Feb-24 07:33N 01°13' E 103°32'6 6.1
2017-Feb-24 06:33N 01°12' E 103°38'10 9.6
2017-Feb-24 05:33N 01°10' E 103°48'1211.6
2017-Feb-24 04:33N 01°15' E 103°58'  
2017-Feb-18 14:26N 01°14' E 104°00'1112.5
2017-Feb-18 13:33N 01°11' E 103°50'6 5.6
2017-Feb-18 12:31N 01°16' E 103°46'0 0.0
2017-Feb-18 11:25N 01°16' E 103°46'0 0.0
2017-Feb-18 10:30N 01°16' E 103°46'0 0.0
2017-Feb-18 09:33N 01°16' E 103°46'0 0.0
2017-Feb-18 08:32N 01°16' E 103°46'0 0.0
2017-Feb-18 07:32N 01°16' E 103°46'0 0.0
2017-Feb-18 06:32N 01°16' E 103°46'0 0.0
2017-Feb-18 05:31N 01°16' E 103°46'0 0.0
2017-Feb-18 04:31N 01°16' E 103°46'0 0.0
2017-Feb-18 03:33N 01°16' E 103°46'0 0.0
2017-Feb-18 02:33N 01°16' E 103°46'0 0.0
2017-Feb-18 01:32N 01°16' E 103°46'0 0.0
2017-Feb-18 00:32N 01°16' E 103°46'0 0.0
2017-Feb-17 23:32N 01°16' E 103°46'5 4.9
2017-Feb-17 22:33N 01°14' E 103°42'8 8.3
2017-Feb-17 21:33N 01°13' E 103°34'6 5.5
2017-Feb-17 20:33N 01°18' E 103°33'3 3.2
2017-Feb-17 19:29N 01°22' E 103°33'0 0.0
2017-Feb-17 18:32N 01°22' E 103°33'0 0.0
2017-Feb-17 17:25N 01°22' E 103°33'0 0.0
2017-Feb-17 16:31N 01°22' E 103°33'0 0.0
2017-Feb-17 15:33N 01°22' E 103°33'0 0.0
2017-Feb-17 14:33N 01°22' E 103°33'0 0.0
2017-Feb-17 13:32N 01°22' E 103°33'0 0.0
2017-Feb-17 12:26N 01°22' E 103°33'0 0.0
2017-Feb-17 11:32N 01°22' E 103°33'0 0.0
2017-Feb-17 10:28N 01°22' E 103°33'0 0.0
2017-Feb-17 09:31N 01°22' E 103°33'0 0.0
2017-Feb-17 08:33N 01°22' E 103°33'0 0.0
2017-Feb-17 07:33N 01°22' E 103°33'2 1.7
2017-Feb-17 06:33N 01°20' E 103°33'7 6.9
2017-Feb-17 05:33N 01°13' E 103°33'0 0.2
2017-Feb-17 04:33N 01°13' E 103°33'4 3.9
2017-Feb-17 03:33N 01°12' E 103°36'5 5.3
2017-Feb-17 02:33N 01°10' E 103°41'10 9.9
2017-Feb-17 01:33N 01°12' E 103°51'  

Dump ship's entire track history